sensor_id;sensor_type;location;lat;lon;timestamp;temperature;humidity
12164;DHT22;6145;50.192;10.064;2022-09-17T00:00:14;12.40;65.70
12164;DHT22;6145;50.192;10.064;2022-09-17T00:02:41;12.00;65.40
12164;DHT22;6145;50.192;10.064;2022-09-17T00:05:09;11.90;65.40
12164;DHT22;6145;50.192;10.064;2022-09-17T00:07:36;11.90;65.40
12164;DHT22;6145;50.192;10.064;2022-09-17T00:10:03;11.90;65.50
12164;DHT22;6145;50.192;10.064;2022-09-17T00:12:30;11.90;65.70
12164;DHT22;6145;50.192;10.064;2022-09-17T00:14:57;11.80;65.60
12164;DHT22;6145;50.192;10.064;2022-09-17T00:17:25;11.90;65.70
12164;DHT22;6145;50.192;10.064;2022-09-17T00:19:52;11.80;65.60
12164;DHT22;6145;50.192;10.064;2022-09-17T00:22:19;11.90;65.80
12164;DHT22;6145;50.192;10.064;2022-09-17T00:24:45;13.10;67.10
12164;DHT22;6145;50.192;10.064;2022-09-17T00:27:12;11.80;65.80
12164;DHT22;6145;50.192;10.064;2022-09-17T00:29:39;13.10;67.20
12164;DHT22;6145;50.192;10.064;2022-09-17T00:32:06;11.70;65.80
12164;DHT22;6145;50.192;10.064;2022-09-17T00:34:34;11.80;66.00
12164;DHT22;6145;50.192;10.064;2022-09-17T00:37:01;11.70;65.90
12164;DHT22;6145;50.192;10.064;2022-09-17T00:39:27;11.70;65.90
12164;DHT22;6145;50.192;10.064;2022-09-17T00:41:54;11.60;65.80
12164;DHT22;6145;50.192;10.064;2022-09-17T00:44:47;13.40;67.60
12164;DHT22;6145;50.192;10.064;2022-09-17T00:47:22;11.70;66.10
12164;DHT22;6145;50.192;10.064;2022-09-17T00:49:54;11.70;66.20
12164;DHT22;6145;50.192;10.064;2022-09-17T00:52:26;11.70;66.30
12164;DHT22;6145;50.192;10.064;2022-09-17T00:54:57;11.70;66.50
12164;DHT22;6145;50.192;10.064;2022-09-17T00:57:25;11.60;66.60
12164;DHT22;6145;50.192;10.064;2022-09-17T00:59:53;13.10;68.10
12164;DHT22;6145;50.192;10.064;2022-09-17T01:02:19;12.30;67.30
12164;DHT22;6145;50.192;10.064;2022-09-17T01:04:46;11.60;66.70
12164;DHT22;6145;50.192;10.064;2022-09-17T01:07:23;12.40;67.60
12164;DHT22;6145;50.192;10.064;2022-09-17T01:09:55;12.90;68.40
12164;DHT22;6145;50.192;10.064;2022-09-17T01:12:43;11.60;67.20
12164;DHT22;6145;50.192;10.064;2022-09-17T01:15:22;11.50;67.20
12164;DHT22;6145;50.192;10.064;2022-09-17T01:18:02;11.50;67.30
12164;DHT22;6145;50.192;10.064;2022-09-17T01:20:51;11.50;67.30
12164;DHT22;6145;50.192;10.064;2022-09-17T01:23:49;12.60;68.50
12164;DHT22;6145;50.192;10.064;2022-09-17T01:26:49;11.50;67.60
12164;DHT22;6145;50.192;10.064;2022-09-17T01:29:33;11.50;67.60
12164;DHT22;6145;50.192;10.064;2022-09-17T01:32:08;11.50;67.70
12164;DHT22;6145;50.192;10.064;2022-09-17T01:34:43;11.50;67.80
12164;DHT22;6145;50.192;10.064;2022-09-17T01:37:13;12.80;69.10
12164;DHT22;6145;50.192;10.064;2022-09-17T01:39:45;11.50;67.80
12164;DHT22;6145;50.192;10.064;2022-09-17T01:42:19;11.50;67.80
12164;DHT22;6145;50.192;10.064;2022-09-17T01:44:53;11.50;67.70
12164;DHT22;6145;50.192;10.064;2022-09-17T01:47:27;11.50;67.60
12164;DHT22;6145;50.192;10.064;2022-09-17T01:49:59;11.60;67.60
12164;DHT22;6145;50.192;10.064;2022-09-17T01:52:27;11.60;67.70
12164;DHT22;6145;50.192;10.064;2022-09-17T01:55:00;11.60;67.60
12164;DHT22;6145;50.192;10.064;2022-09-17T01:57:33;11.70;67.70
12164;DHT22;6145;50.192;10.064;2022-09-17T02:00:05;11.50;67.50
12164;DHT22;6145;50.192;10.064;2022-09-17T02:02:38;11.60;67.60
12164;DHT22;6145;50.192;10.064;2022-09-17T02:05:08;11.50;67.60
12164;DHT22;6145;50.192;10.064;2022-09-17T02:07:39;11.50;67.60
12164;DHT22;6145;50.192;10.064;2022-09-17T02:10:10;11.50;67.70
12164;DHT22;6145;50.192;10.064;2022-09-17T02:12:41;11.60;67.80
12164;DHT22;6145;50.192;10.064;2022-09-17T02:15:11;11.50;67.70
12164;DHT22;6145;50.192;10.064;2022-09-17T02:17:44;11.50;67.60
12164;DHT22;6145;50.192;10.064;2022-09-17T02:20:12;11.50;67.70
12164;DHT22;6145;50.192;10.064;2022-09-17T02:22:43;11.50;67.70
12164;DHT22;6145;50.192;10.064;2022-09-17T02:25:18;11.70;67.90
12164;DHT22;6145;50.192;10.064;2022-09-17T02:27:51;11.60;67.90
12164;DHT22;6145;50.192;10.064;2022-09-17T02:30:20;11.60;67.90
12164;DHT22;6145;50.192;10.064;2022-09-17T02:32:48;11.60;67.90
12164;DHT22;6145;50.192;10.064;2022-09-17T02:35:16;11.60;67.90
12164;DHT22;6145;50.192;10.064;2022-09-17T02:37:44;11.60;67.90
12164;DHT22;6145;50.192;10.064;2022-09-17T02:40:12;11.60;67.90
12164;DHT22;6145;50.192;10.064;2022-09-17T02:42:53;11.60;67.90
12164;DHT22;6145;50.192;10.064;2022-09-17T02:45:32;11.60;68.00
12164;DHT22;6145;50.192;10.064;2022-09-17T02:48:11;11.60;68.00
12164;DHT22;6145;50.192;10.064;2022-09-17T02:53:44;11.60;68.00
12164;DHT22;6145;50.192;10.064;2022-09-17T02:56:19;11.60;68.00
12164;DHT22;6145;50.192;10.064;2022-09-17T02:58:53;11.70;68.20
12164;DHT22;6145;50.192;10.064;2022-09-17T03:01:27;11.80;68.40
12164;DHT22;6145;50.192;10.064;2022-09-17T03:03:58;11.70;68.30
12164;DHT22;6145;50.192;10.064;2022-09-17T03:06:26;11.60;68.20
12164;DHT22;6145;50.192;10.064;2022-09-17T03:08:54;11.60;68.30
12164;DHT22;6145;50.192;10.064;2022-09-17T03:11:21;11.70;68.40
12164;DHT22;6145;50.192;10.064;2022-09-17T03:13:48;11.70;68.50
12164;DHT22;6145;50.192;10.064;2022-09-17T03:16:15;11.70;68.50
12164;DHT22;6145;50.192;10.064;2022-09-17T03:18:42;11.70;68.50
12164;DHT22;6145;50.192;10.064;2022-09-17T03:21:10;11.70;68.70
12164;DHT22;6145;50.192;10.064;2022-09-17T03:23:37;11.70;68.80
12164;DHT22;6145;50.192;10.064;2022-09-17T03:26:04;12.70;69.90
12164;DHT22;6145;50.192;10.064;2022-09-17T03:28:31;11.70;69.00
12164;DHT22;6145;50.192;10.064;2022-09-17T03:30:58;11.70;69.20
12164;DHT22;6145;50.192;10.064;2022-09-17T03:33:24;11.70;69.30
12164;DHT22;6145;50.192;10.064;2022-09-17T03:35:51;11.60;69.30
12164;DHT22;6145;50.192;10.064;2022-09-17T03:38:19;11.60;69.40
12164;DHT22;6145;50.192;10.064;2022-09-17T03:40:56;11.60;69.40
12164;DHT22;6145;50.192;10.064;2022-09-17T03:43:23;11.70;69.50
12164;DHT22;6145;50.192;10.064;2022-09-17T03:45:50;11.60;69.50
12164;DHT22;6145;50.192;10.064;2022-09-17T03:48:17;11.60;69.50
12164;DHT22;6145;50.192;10.064;2022-09-17T03:50:43;11.60;69.60
12164;DHT22;6145;50.192;10.064;2022-09-17T03:53:10;11.60;69.60
12164;DHT22;6145;50.192;10.064;2022-09-17T03:55:39;11.60;69.60
12164;DHT22;6145;50.192;10.064;2022-09-17T03:58:05;11.60;69.70
12164;DHT22;6145;50.192;10.064;2022-09-17T04:00:33;11.60;69.80
12164;DHT22;6145;50.192;10.064;2022-09-17T04:03:01;11.00;69.20
12164;DHT22;6145;50.192;10.064;2022-09-17T04:05:28;11.60;69.80
12164;DHT22;6145;50.192;10.064;2022-09-17T04:07:55;11.60;69.80
12164;DHT22;6145;50.192;10.064;2022-09-17T04:10:21;11.60;69.90
12164;DHT22;6145;50.192;10.064;2022-09-17T04:12:50;11.60;70.00
12164;DHT22;6145;50.192;10.064;2022-09-17T04:15:16;11.60;70.10
12164;DHT22;6145;50.192;10.064;2022-09-17T04:17:43;11.70;70.30
12164;DHT22;6145;50.192;10.064;2022-09-17T04:20:10;11.60;70.20
12164;DHT22;6145;50.192;10.064;2022-09-17T04:22:37;11.60;70.30
12164;DHT22;6145;50.192;10.064;2022-09-17T04:25:04;11.60;70.40
12164;DHT22;6145;50.192;10.064;2022-09-17T04:27:31;11.60;70.40
12164;DHT22;6145;50.192;10.064;2022-09-17T04:29:59;11.60;70.50
12164;DHT22;6145;50.192;10.064;2022-09-17T04:32:27;11.60;70.50
12164;DHT22;6145;50.192;10.064;2022-09-17T04:34:53;11.60;70.60
12164;DHT22;6145;50.192;10.064;2022-09-17T04:37:20;11.60;70.70
12164;DHT22;6145;50.192;10.064;2022-09-17T04:39:48;11.60;70.80
12164;DHT22;6145;50.192;10.064;2022-09-17T04:42:15;11.50;70.70
12164;DHT22;6145;50.192;10.064;2022-09-17T04:44:41;11.50;70.90
12164;DHT22;6145;50.192;10.064;2022-09-17T04:47:10;11.50;70.90
12164;DHT22;6145;50.192;10.064;2022-09-17T04:49:36;11.50;70.90
12164;DHT22;6145;50.192;10.064;2022-09-17T04:52:03;11.50;71.00
12164;DHT22;6145;50.192;10.064;2022-09-17T04:54:30;11.50;71.10
12164;DHT22;6145;50.192;10.064;2022-09-17T04:56:57;11.50;71.10
12164;DHT22;6145;50.192;10.064;2022-09-17T04:59:24;11.60;71.30
12164;DHT22;6145;50.192;10.064;2022-09-17T05:01:51;11.50;71.30
12164;DHT22;6145;50.192;10.064;2022-09-17T05:04:19;11.50;71.40
12164;DHT22;6145;50.192;10.064;2022-09-17T05:06:46;11.50;71.50
12164;DHT22;6145;50.192;10.064;2022-09-17T05:09:13;11.50;71.50
12164;DHT22;6145;50.192;10.064;2022-09-17T05:11:39;11.50;71.60
12164;DHT22;6145;50.192;10.064;2022-09-17T05:14:07;11.50;71.70
12164;DHT22;6145;50.192;10.064;2022-09-17T05:16:33;11.50;71.70
12164;DHT22;6145;50.192;10.064;2022-09-17T05:19:00;11.50;71.70
12164;DHT22;6145;50.192;10.064;2022-09-17T05:21:29;11.50;71.80
12164;DHT22;6145;50.192;10.064;2022-09-17T05:23:56;11.50;71.80
12164;DHT22;6145;50.192;10.064;2022-09-17T05:26:23;11.50;71.80
12164;DHT22;6145;50.192;10.064;2022-09-17T05:28:49;11.50;71.80
12164;DHT22;6145;50.192;10.064;2022-09-17T05:31:16;11.50;71.90
12164;DHT22;6145;50.192;10.064;2022-09-17T05:33:43;11.70;72.10
12164;DHT22;6145;50.192;10.064;2022-09-17T05:36:10;11.60;72.00
12164;DHT22;6145;50.192;10.064;2022-09-17T05:38:38;11.60;72.20
12164;DHT22;6145;50.192;10.064;2022-09-17T05:41:05;11.60;72.20
12164;DHT22;6145;50.192;10.064;2022-09-17T05:43:32;11.50;72.10
12164;DHT22;6145;50.192;10.064;2022-09-17T05:46:03;11.60;72.30
12164;DHT22;6145;50.192;10.064;2022-09-17T05:48:30;11.50;72.30
12164;DHT22;6145;50.192;10.064;2022-09-17T05:50:57;11.60;73.10
12164;DHT22;6145;50.192;10.064;2022-09-17T05:53:24;11.50;72.40
12164;DHT22;6145;50.192;10.064;2022-09-17T05:55:55;11.60;72.50
12164;DHT22;6145;50.192;10.064;2022-09-17T05:58:22;11.60;72.50
12164;DHT22;6145;50.192;10.064;2022-09-17T06:00:49;11.60;72.60
12164;DHT22;6145;50.192;10.064;2022-09-17T06:03:17;11.60;72.60
12164;DHT22;6145;50.192;10.064;2022-09-17T06:05:52;11.60;72.60
12164;DHT22;6145;50.192;10.064;2022-09-17T06:08:19;11.60;72.60
12164;DHT22;6145;50.192;10.064;2022-09-17T06:10:46;11.60;72.60
12164;DHT22;6145;50.192;10.064;2022-09-17T06:13:15;11.60;73.30
12164;DHT22;6145;50.192;10.064;2022-09-17T06:15:42;11.60;72.70
12164;DHT22;6145;50.192;10.064;2022-09-17T06:18:08;11.60;72.70
12164;DHT22;6145;50.192;10.064;2022-09-17T06:20:35;11.60;72.70
12164;DHT22;6145;50.192;10.064;2022-09-17T06:23:02;11.70;72.80
12164;DHT22;6145;50.192;10.064;2022-09-17T06:25:29;11.70;72.90
12164;DHT22;6145;50.192;10.064;2022-09-17T06:27:56;11.70;72.80
12164;DHT22;6145;50.192;10.064;2022-09-17T06:30:25;11.70;72.70
12164;DHT22;6145;50.192;10.064;2022-09-17T06:32:52;11.70;72.90
12164;DHT22;6145;50.192;10.064;2022-09-17T06:35:18;11.70;72.90
12164;DHT22;6145;50.192;10.064;2022-09-17T06:37:45;11.70;72.90
12164;DHT22;6145;50.192;10.064;2022-09-17T06:40:12;12.20;74.20
12164;DHT22;6145;50.192;10.064;2022-09-17T06:42:39;11.70;72.90
12164;DHT22;6145;50.192;10.064;2022-09-17T06:45:07;11.70;72.90
12164;DHT22;6145;50.192;10.064;2022-09-17T06:47:35;11.70;72.90
12164;DHT22;6145;50.192;10.064;2022-09-17T06:50:03;11.80;73.00
12164;DHT22;6145;50.192;10.064;2022-09-17T06:52:30;11.70;73.00
12164;DHT22;6145;50.192;10.064;2022-09-17T06:54:57;11.80;73.10
12164;DHT22;6145;50.192;10.064;2022-09-17T06:57:25;11.80;73.20
12164;DHT22;6145;50.192;10.064;2022-09-17T06:59:55;11.80;73.20
12164;DHT22;6145;50.192;10.064;2022-09-17T07:02:22;11.80;73.30
12164;DHT22;6145;50.192;10.064;2022-09-17T07:04:50;11.90;73.40
12164;DHT22;6145;50.192;10.064;2022-09-17T07:07:19;11.90;73.50
12164;DHT22;6145;50.192;10.064;2022-09-17T07:09:46;12.00;73.50
12164;DHT22;6145;50.192;10.064;2022-09-17T07:12:13;11.90;73.50
12164;DHT22;6145;50.192;10.064;2022-09-17T07:14:40;12.00;73.60
12164;DHT22;6145;50.192;10.064;2022-09-17T07:17:06;11.90;73.50
12164;DHT22;6145;50.192;10.064;2022-09-17T07:19:33;12.00;73.60
12164;DHT22;6145;50.192;10.064;2022-09-17T07:22:01;12.10;73.70
12164;DHT22;6145;50.192;10.064;2022-09-17T07:24:28;12.10;74.40
12164;DHT22;6145;50.192;10.064;2022-09-17T07:26:55;12.20;73.80
12164;DHT22;6145;50.192;10.064;2022-09-17T07:29:22;12.20;73.80
12164;DHT22;6145;50.192;10.064;2022-09-17T07:31:50;12.20;73.80
12164;DHT22;6145;50.192;10.064;2022-09-17T07:34:17;12.30;73.90
12164;DHT22;6145;50.192;10.064;2022-09-17T07:36:44;12.30;73.80
12164;DHT22;6145;50.192;10.064;2022-09-17T07:39:13;14.00;75.40
12164;DHT22;6145;50.192;10.064;2022-09-17T07:41:40;12.40;73.70
12164;DHT22;6145;50.192;10.064;2022-09-17T07:44:06;12.70;74.60
12164;DHT22;6145;50.192;10.064;2022-09-17T07:46:34;12.40;73.60
12164;DHT22;6145;50.192;10.064;2022-09-17T07:49:01;12.40;73.60
12164;DHT22;6145;50.192;10.064;2022-09-17T07:51:28;12.50;73.50
12164;DHT22;6145;50.192;10.064;2022-09-17T07:53:56;12.50;73.40
12164;DHT22;6145;50.192;10.064;2022-09-17T07:56:25;12.50;73.40
12164;DHT22;6145;50.192;10.064;2022-09-17T07:58:53;12.50;73.40
12164;DHT22;6145;50.192;10.064;2022-09-17T08:01:20;12.60;73.40
12164;DHT22;6145;50.192;10.064;2022-09-17T08:03:49;12.60;73.30
12164;DHT22;6145;50.192;10.064;2022-09-17T08:06:18;12.80;73.40
12164;DHT22;6145;50.192;10.064;2022-09-17T08:08:46;12.70;73.30
12164;DHT22;6145;50.192;10.064;2022-09-17T08:11:14;12.70;73.20
12164;DHT22;6145;50.192;10.064;2022-09-17T08:13:45;12.70;73.10
12164;DHT22;6145;50.192;10.064;2022-09-17T08:16:12;12.70;73.10
12164;DHT22;6145;50.192;10.064;2022-09-17T08:18:40;12.90;73.20
12164;DHT22;6145;50.192;10.064;2022-09-17T08:21:10;12.90;73.20
12164;DHT22;6145;50.192;10.064;2022-09-17T08:23:38;12.90;73.00
12164;DHT22;6145;50.192;10.064;2022-09-17T08:26:07;12.90;72.90
12164;DHT22;6145;50.192;10.064;2022-09-17T08:28:36;12.90;72.70
12164;DHT22;6145;50.192;10.064;2022-09-17T08:31:06;14.60;74.30
12164;DHT22;6145;50.192;10.064;2022-09-17T08:33:35;13.00;72.70
12164;DHT22;6145;50.192;10.064;2022-09-17T08:36:02;13.00;72.50
12164;DHT22;6145;50.192;10.064;2022-09-17T08:38:31;13.10;72.40
12164;DHT22;6145;50.192;10.064;2022-09-17T08:41:05;13.10;72.10
12164;DHT22;6145;50.192;10.064;2022-09-17T08:43:39;13.20;72.10
12164;DHT22;6145;50.192;10.064;2022-09-17T08:46:10;13.20;71.80
12164;DHT22;6145;50.192;10.064;2022-09-17T08:48:41;13.20;71.70
12164;DHT22;6145;50.192;10.064;2022-09-17T08:51:21;13.30;71.80
12164;DHT22;6145;50.192;10.064;2022-09-17T08:53:57;13.40;72.40
12164;DHT22;6145;50.192;10.064;2022-09-17T08:56:31;13.50;71.60
12164;DHT22;6145;50.192;10.064;2022-09-17T08:59:06;13.50;71.50
12164;DHT22;6145;50.192;10.064;2022-09-17T09:01:43;13.50;71.30
12164;DHT22;6145;50.192;10.064;2022-09-17T09:04:35;13.60;71.20
12164;DHT22;6145;50.192;10.064;2022-09-17T09:07:09;13.60;71.00
12164;DHT22;6145;50.192;10.064;2022-09-17T09:09:42;13.60;70.90
12164;DHT22;6145;50.192;10.064;2022-09-17T09:12:16;13.60;70.70
12164;DHT22;6145;50.192;10.064;2022-09-17T09:14:49;13.70;70.60
12164;DHT22;6145;50.192;10.064;2022-09-17T09:17:21;13.80;70.40
12164;DHT22;6145;50.192;10.064;2022-09-17T09:19:48;13.80;70.20
12164;DHT22;6145;50.192;10.064;2022-09-17T09:22:28;13.90;70.10
12164;DHT22;6145;50.192;10.064;2022-09-17T09:25:02;14.00;70.00
12164;DHT22;6145;50.192;10.064;2022-09-17T09:27:34;14.00;70.00
12164;DHT22;6145;50.192;10.064;2022-09-17T09:30:05;14.00;69.90
12164;DHT22;6145;50.192;10.064;2022-09-17T09:32:50;14.10;70.00
12164;DHT22;6145;50.192;10.064;2022-09-17T09:35:19;14.10;69.70
12164;DHT22;6145;50.192;10.064;2022-09-17T09:37:53;14.10;69.60
12164;DHT22;6145;50.192;10.064;2022-09-17T09:40:40;14.20;69.60
12164;DHT22;6145;50.192;10.064;2022-09-17T09:43:14;14.20;69.40
12164;DHT22;6145;50.192;10.064;2022-09-17T09:46:00;14.20;69.20
12164;DHT22;6145;50.192;10.064;2022-09-17T09:48:37;14.30;69.20
12164;DHT22;6145;50.192;10.064;2022-09-17T09:51:17;14.30;69.00
12164;DHT22;6145;50.192;10.064;2022-09-17T09:53:55;14.40;68.90
12164;DHT22;6145;50.192;10.064;2022-09-17T09:56:46;14.40;68.60
12164;DHT22;6145;50.192;10.064;2022-09-17T09:59:14;14.50;68.50
12164;DHT22;6145;50.192;10.064;2022-09-17T10:01:42;15.30;69.10
12164;DHT22;6145;50.192;10.064;2022-09-17T10:04:18;14.50;68.20
12164;DHT22;6145;50.192;10.064;2022-09-17T10:06:46;14.60;68.10
12164;DHT22;6145;50.192;10.064;2022-09-17T10:09:15;14.60;68.10
12164;DHT22;6145;50.192;10.064;2022-09-17T10:12:03;14.60;68.10
12164;DHT22;6145;50.192;10.064;2022-09-17T10:14:32;14.60;68.10
12164;DHT22;6145;50.192;10.064;2022-09-17T10:17:17;14.60;68.10
12164;DHT22;6145;50.192;10.064;2022-09-17T10:22:31;14.60;68.10
12164;DHT22;6145;50.192;10.064;2022-09-17T10:25:00;14.70;68.30
12164;DHT22;6145;50.192;10.064;2022-09-17T10:27:27;14.60;68.10
12164;DHT22;6145;50.192;10.064;2022-09-17T10:30:02;14.70;68.20
12164;DHT22;6145;50.192;10.064;2022-09-17T10:32:29;14.70;68.20
12164;DHT22;6145;50.192;10.064;2022-09-17T10:35:03;14.70;68.20
12164;DHT22;6145;50.192;10.064;2022-09-17T10:37:40;14.70;68.20
12164;DHT22;6145;50.192;10.064;2022-09-17T10:40:30;14.70;68.30
12164;DHT22;6145;50.192;10.064;2022-09-17T10:43:16;14.80;68.00
12164;DHT22;6145;50.192;10.064;2022-09-17T10:45:44;14.80;67.90
12164;DHT22;6145;50.192;10.064;2022-09-17T10:48:15;14.90;67.90
12164;DHT22;6145;50.192;10.064;2022-09-17T10:50:48;14.90;67.80
12164;DHT22;6145;50.192;10.064;2022-09-17T10:53:17;14.90;67.60
12164;DHT22;6145;50.192;10.064;2022-09-17T10:55:49;15.30;68.00
12164;DHT22;6145;50.192;10.064;2022-09-17T10:58:26;15.00;67.50
12164;DHT22;6145;50.192;10.064;2022-09-17T11:01:04;15.00;67.20
12164;DHT22;6145;50.192;10.064;2022-09-17T11:03:50;15.00;66.70
12164;DHT22;6145;50.192;10.064;2022-09-17T11:09:31;15.10;66.70
12164;DHT22;6145;50.192;10.064;2022-09-17T11:12:14;15.20;66.90
12164;DHT22;6145;50.192;10.064;2022-09-17T11:14:49;15.20;66.80
12164;DHT22;6145;50.192;10.064;2022-09-17T11:17:29;15.20;66.80
12164;DHT22;6145;50.192;10.064;2022-09-17T11:20:02;15.10;66.60
12164;DHT22;6145;50.192;10.064;2022-09-17T11:22:40;15.20;66.50
12164;DHT22;6145;50.192;10.064;2022-09-17T11:25:37;15.30;66.50
12164;DHT22;6145;50.192;10.064;2022-09-17T11:28:16;15.30;66.40
12164;DHT22;6145;50.192;10.064;2022-09-17T11:30:54;15.30;66.20
12164;DHT22;6145;50.192;10.064;2022-09-17T11:33:38;15.60;66.40
12164;DHT22;6145;50.192;10.064;2022-09-17T11:36:11;15.30;65.80
12164;DHT22;6145;50.192;10.064;2022-09-17T11:38:42;15.30;65.60
12164;DHT22;6145;50.192;10.064;2022-09-17T11:41:13;15.40;65.40
12164;DHT22;6145;50.192;10.064;2022-09-17T11:43:45;15.60;65.30
12164;DHT22;6145;50.192;10.064;2022-09-17T11:46:16;15.40;64.80
12164;DHT22;6145;50.192;10.064;2022-09-17T11:48:46;15.40;64.50
12164;DHT22;6145;50.192;10.064;2022-09-17T11:51:22;15.40;65.00
12164;DHT22;6145;50.192;10.064;2022-09-17T11:53:54;15.50;64.00
12164;DHT22;6145;50.192;10.064;2022-09-17T11:56:25;15.50;64.00
12164;DHT22;6145;50.192;10.064;2022-09-17T11:58:57;15.50;63.80
12164;DHT22;6145;50.192;10.064;2022-09-17T12:01:30;15.60;63.70
12164;DHT22;6145;50.192;10.064;2022-09-17T12:04:01;15.60;63.30
12164;DHT22;6145;50.192;10.064;2022-09-17T12:06:35;15.60;63.10
12164;DHT22;6145;50.192;10.064;2022-09-17T12:09:11;16.60;63.90
12164;DHT22;6145;50.192;10.064;2022-09-17T12:11:41;15.70;62.70
12164;DHT22;6145;50.192;10.064;2022-09-17T12:14:16;15.70;62.70
12164;DHT22;6145;50.192;10.064;2022-09-17T12:16:48;15.70;62.60
12164;DHT22;6145;50.192;10.064;2022-09-17T12:19:19;15.80;62.30
12164;DHT22;6145;50.192;10.064;2022-09-17T12:21:50;15.80;62.00
12164;DHT22;6145;50.192;10.064;2022-09-17T12:24:21;15.80;61.70
12164;DHT22;6145;50.192;10.064;2022-09-17T12:27:02;15.80;61.30
12164;DHT22;6145;50.192;10.064;2022-09-17T12:32:49;15.90;60.60
12164;DHT22;6145;50.192;10.064;2022-09-17T12:38:19;15.90;60.00
12164;DHT22;6145;50.192;10.064;2022-09-17T12:40:57;15.90;59.80
12164;DHT22;6145;50.192;10.064;2022-09-17T12:43:51;15.90;59.40
12164;DHT22;6145;50.192;10.064;2022-09-17T12:46:34;15.90;59.20
12164;DHT22;6145;50.192;10.064;2022-09-17T12:52:08;16.40;59.30
12164;DHT22;6145;50.192;10.064;2022-09-17T12:54:49;16.00;58.50
12164;DHT22;6145;50.192;10.064;2022-09-17T12:57:30;15.90;58.00
12164;DHT22;6145;50.192;10.064;2022-09-17T13:00:02;16.00;57.60
12164;DHT22;6145;50.192;10.064;2022-09-17T13:02:32;16.10;57.80
12164;DHT22;6145;50.192;10.064;2022-09-17T13:05:39;16.10;57.80
12164;DHT22;6145;50.192;10.064;2022-09-17T13:08:36;16.10;57.10
12164;DHT22;6145;50.192;10.064;2022-09-17T13:11:50;16.10;56.90
12164;DHT22;6145;50.192;10.064;2022-09-17T13:14:27;16.10;56.90
12164;DHT22;6145;50.192;10.064;2022-09-17T13:17:03;16.20;56.50
12164;DHT22;6145;50.192;10.064;2022-09-17T13:19:37;16.20;56.20
12164;DHT22;6145;50.192;10.064;2022-09-17T13:22:06;16.20;56.40
12164;DHT22;6145;50.192;10.064;2022-09-17T13:24:34;16.20;56.40
12164;DHT22;6145;50.192;10.064;2022-09-17T13:27:04;16.20;56.20
12164;DHT22;6145;50.192;10.064;2022-09-17T13:29:58;16.30;56.30
12164;DHT22;6145;50.192;10.064;2022-09-17T13:32:44;16.40;56.10
12164;DHT22;6145;50.192;10.064;2022-09-17T13:35:46;16.40;55.90
12164;DHT22;6145;50.192;10.064;2022-09-17T13:38:13;16.40;55.50
12164;DHT22;6145;50.192;10.064;2022-09-17T13:40:40;16.40;55.30
12164;DHT22;6145;50.192;10.064;2022-09-17T13:43:11;16.70;55.50
12164;DHT22;6145;50.192;10.064;2022-09-17T13:46:04;16.50;55.30
12164;DHT22;6145;50.192;10.064;2022-09-17T13:48:49;16.50;55.50
12164;DHT22;6145;50.192;10.064;2022-09-17T13:51:42;16.50;55.20
12164;DHT22;6145;50.192;10.064;2022-09-17T13:54:10;16.50;55.50
12164;DHT22;6145;50.192;10.064;2022-09-17T13:56:39;16.50;55.50
12164;DHT22;6145;50.192;10.064;2022-09-17T13:59:10;16.60;55.60
12164;DHT22;6145;50.192;10.064;2022-09-17T14:01:56;16.60;55.70
12164;DHT22;6145;50.192;10.064;2022-09-17T14:07:32;16.60;55.30
12164;DHT22;6145;50.192;10.064;2022-09-17T14:10:00;16.60;55.30
12164;DHT22;6145;50.192;10.064;2022-09-17T14:12:53;16.60;55.40
12164;DHT22;6145;50.192;10.064;2022-09-17T14:15:55;16.70;55.50
12164;DHT22;6145;50.192;10.064;2022-09-17T14:18:36;16.70;55.50
12164;DHT22;6145;50.192;10.064;2022-09-17T14:21:08;16.70;55.50
12164;DHT22;6145;50.192;10.064;2022-09-17T14:23:42;16.70;55.40
12164;DHT22;6145;50.192;10.064;2022-09-17T14:26:15;16.70;55.30
12164;DHT22;6145;50.192;10.064;2022-09-17T14:28:48;17.90;56.30
12164;DHT22;6145;50.192;10.064;2022-09-17T14:31:24;16.80;55.30
12164;DHT22;6145;50.192;10.064;2022-09-17T14:33:54;16.80;55.40
12164;DHT22;6145;50.192;10.064;2022-09-17T14:36:22;16.80;54.90
12164;DHT22;6145;50.192;10.064;2022-09-17T14:38:51;16.80;54.70
12164;DHT22;6145;50.192;10.064;2022-09-17T14:41:20;16.80;54.50
12164;DHT22;6145;50.192;10.064;2022-09-17T14:43:50;16.80;54.40
12164;DHT22;6145;50.192;10.064;2022-09-17T14:46:21;16.80;54.40
12164;DHT22;6145;50.192;10.064;2022-09-17T14:48:49;16.70;54.00
12164;DHT22;6145;50.192;10.064;2022-09-17T14:51:26;16.70;53.80
12164;DHT22;6145;50.192;10.064;2022-09-17T14:54:20;16.70;53.50
12164;DHT22;6145;50.192;10.064;2022-09-17T14:56:52;16.70;53.90
12164;DHT22;6145;50.192;10.064;2022-09-17T14:59:24;16.60;53.30
12164;DHT22;6145;50.192;10.064;2022-09-17T15:01:53;16.50;52.90
12164;DHT22;6145;50.192;10.064;2022-09-17T15:04:22;16.50;53.10
12164;DHT22;6145;50.192;10.064;2022-09-17T15:06:49;16.50;53.10
12164;DHT22;6145;50.192;10.064;2022-09-17T15:09:17;16.50;52.80
12164;DHT22;6145;50.192;10.064;2022-09-17T15:11:45;16.50;52.70
12164;DHT22;6145;50.192;10.064;2022-09-17T15:14:17;16.40;52.50
12164;DHT22;6145;50.192;10.064;2022-09-17T15:16:50;16.40;52.50
12164;DHT22;6145;50.192;10.064;2022-09-17T15:19:22;16.50;52.70
12164;DHT22;6145;50.192;10.064;2022-09-17T15:21:51;16.30;52.60
12164;DHT22;6145;50.192;10.064;2022-09-17T15:24:26;16.30;52.70
12164;DHT22;6145;50.192;10.064;2022-09-17T15:26:58;16.30;52.90
12164;DHT22;6145;50.192;10.064;2022-09-17T15:29:28;16.30;52.80
12164;DHT22;6145;50.192;10.064;2022-09-17T15:31:55;16.30;53.00
12164;DHT22;6145;50.192;10.064;2022-09-17T15:34:24;16.30;53.20
12164;DHT22;6145;50.192;10.064;2022-09-17T15:37:02;16.30;53.30
12164;DHT22;6145;50.192;10.064;2022-09-17T15:39:30;16.30;53.30
12164;DHT22;6145;50.192;10.064;2022-09-17T15:42:02;16.30;53.50
12164;DHT22;6145;50.192;10.064;2022-09-17T15:44:29;16.30;53.60
12164;DHT22;6145;50.192;10.064;2022-09-17T15:50:11;16.30;53.60
12164;DHT22;6145;50.192;10.064;2022-09-17T15:52:39;16.30;53.70
12164;DHT22;6145;50.192;10.064;2022-09-17T15:55:28;16.30;53.80
12164;DHT22;6145;50.192;10.064;2022-09-17T15:57:55;16.30;53.70
12164;DHT22;6145;50.192;10.064;2022-09-17T16:00:23;16.40;53.90
12164;DHT22;6145;50.192;10.064;2022-09-17T16:02:50;16.30;54.00
12164;DHT22;6145;50.192;10.064;2022-09-17T16:05:48;16.30;54.10
12164;DHT22;6145;50.192;10.064;2022-09-17T16:08:22;16.40;54.20
12164;DHT22;6145;50.192;10.064;2022-09-17T16:10:50;16.30;54.20
12164;DHT22;6145;50.192;10.064;2022-09-17T16:13:16;16.30;54.30
12164;DHT22;6145;50.192;10.064;2022-09-17T16:15:43;17.30;55.20
12164;DHT22;6145;50.192;10.064;2022-09-17T16:18:13;16.30;54.40
12164;DHT22;6145;50.192;10.064;2022-09-17T16:20:41;16.30;54.50
12164;DHT22;6145;50.192;10.064;2022-09-17T16:23:09;16.30;54.40